createdAt,value
2019-05-22T00:01:27.836Z,6.43
2019-05-22T00:04:06.523Z,7.70
2019-05-22T00:06:36.271Z,9.03
2019-05-22T00:09:05.484Z,5.20
2019-05-22T00:11:34.270Z,7.47
2019-05-22T00:14:02.403Z,7.47
2019-05-22T00:16:30.876Z,7.13
2019-05-22T00:18:58.407Z,7.73
2019-05-22T00:21:25.076Z,8.33
2019-05-22T00:23:54.047Z,7.30
2019-05-22T00:26:22.333Z,7.20
2019-05-22T00:28:49.611Z,7.70
2019-05-22T00:31:17.738Z,6.00
2019-05-22T00:33:44.875Z,6.03
2019-05-22T00:36:12.931Z,7.03
2019-05-22T00:38:40.655Z,5.50
2019-05-22T00:41:09.387Z,6.67
2019-05-22T00:43:39.565Z,4.83
2019-05-22T00:46:07.983Z,4.47
2019-05-22T00:48:35.876Z,4.30
2019-05-22T00:51:26.515Z,3.90
2019-05-22T00:53:57.663Z,5.20
2019-05-22T00:56:38.787Z,4.40
2019-05-22T00:59:11.047Z,4.10
2019-05-22T01:01:45.451Z,4.93
2019-05-22T01:04:14.263Z,6.80
2019-05-22T01:06:43.152Z,3.90
2019-05-22T01:09:19.723Z,4.10
2019-05-22T01:11:47.388Z,3.83
2019-05-22T01:14:17.504Z,5.40
2019-05-22T01:16:45.852Z,6.90
2019-05-22T01:19:15.052Z,3.80
2019-05-22T01:21:44.807Z,4.33
2019-05-22T01:24:12.591Z,5.33
2019-05-22T01:26:40.980Z,5.40
2019-05-22T01:29:08.796Z,2.67
2019-05-22T01:31:41.024Z,3.50
2019-05-22T01:34:12.067Z,4.90
2019-05-22T01:36:44.282Z,3.60
2019-05-22T01:39:27.627Z,3.40
2019-05-22T01:41:55.797Z,2.30
2019-05-22T01:44:24.779Z,3.00
2019-05-22T01:46:53.252Z,2.93
2019-05-22T01:49:21.339Z,4.30
2019-05-22T01:51:49.767Z,4.23
2019-05-22T01:54:18.903Z,4.90
2019-05-22T01:56:46.080Z,4.40
2019-05-22T01:59:18.825Z,4.60
2019-05-22T02:01:47.289Z,4.20
2019-05-22T02:04:15.060Z,3.37
2019-05-22T02:06:41.908Z,4.53
2019-05-22T02:09:23.809Z,3.93
2019-05-22T02:11:53.936Z,4.87
2019-05-22T02:14:22.005Z,4.80
2019-05-22T02:16:56.909Z,4.33
2019-05-22T02:19:17.715Z,4.13
2019-05-22T02:21:47.267Z,3.23
2019-05-22T02:24:15.350Z,3.70
2019-05-22T02:26:44.311Z,3.83
2019-05-22T02:29:13.504Z,9.93
2019-05-22T02:31:42.999Z,4.20
2019-05-22T02:34:11.032Z,4.33
2019-05-22T02:36:39.356Z,3.63
2019-05-22T02:39:10.213Z,3.43
2019-05-22T02:41:41.850Z,3.90
2019-05-22T02:44:09.821Z,3.90
2019-05-22T02:46:37.437Z,4.23
2019-05-22T02:49:06.325Z,5.70
2019-05-22T02:51:33.878Z,4.50
2019-05-22T02:54:02.321Z,8.13
2019-05-22T02:56:29.357Z,8.53
2019-05-22T02:58:56.083Z,8.03
2019-05-22T03:01:23.848Z,11.70
2019-05-22T03:03:51.516Z,9.30
2019-05-22T03:06:18.781Z,7.63
2019-05-22T03:09:04.456Z,11.60
2019-05-22T03:11:35.337Z,10.73
2019-05-22T03:14:04.641Z,8.17
2019-05-22T03:16:38.985Z,13.00
2019-05-22T03:19:09.071Z,10.97
2019-05-22T03:21:34.970Z,11.00
2019-05-22T03:24:02.876Z,15.10
2019-05-22T03:26:38.014Z,15.60
2019-05-22T03:29:05.327Z,18.40
2019-05-22T03:31:32.170Z,17.80
2019-05-22T03:33:59.140Z,22.60
2019-05-22T03:36:26.866Z,27.97
2019-05-22T03:38:54.716Z,30.00
2019-05-22T03:41:22.369Z,37.90
2019-05-22T03:43:50.285Z,32.27
2019-05-22T03:46:23.076Z,27.90
2019-05-22T03:48:49.996Z,34.20
2019-05-22T03:51:17.027Z,37.90
2019-05-22T03:53:45.929Z,35.20
2019-05-22T03:56:15.861Z,35.30
2019-05-22T03:58:42.856Z,34.47
2019-05-22T04:01:10.901Z,40.47
2019-05-22T04:03:39.723Z,30.33
2019-05-22T04:06:08.215Z,32.33
2019-05-22T04:08:36.646Z,38.40
2019-05-22T04:11:04.887Z,31.67
2019-05-22T04:13:32.310Z,28.50
2019-05-22T04:16:00.475Z,42.30
2019-05-22T04:18:29.187Z,33.43
2019-05-22T04:20:56.850Z,30.37
2019-05-22T04:23:23.871Z,30.03
2019-05-22T04:25:53.488Z,40.50
2019-05-22T04:28:20.314Z,32.00
2019-05-22T04:30:47.809Z,29.87
2019-05-22T04:33:14.619Z,34.40
2019-05-22T04:35:41.592Z,33.33
2019-05-22T04:38:08.948Z,40.90
2019-05-22T04:40:49.101Z,35.90
2019-05-22T04:43:20.260Z,35.53
2019-05-22T04:45:48.218Z,39.90
2019-05-22T04:48:14.929Z,34.87
2019-05-22T04:50:41.614Z,33.10
2019-05-22T04:53:08.531Z,32.43
2019-05-22T04:55:35.790Z,27.67
2019-05-22T04:58:04.161Z,38.10
2019-05-22T05:00:32.336Z,31.40
2019-05-22T05:03:00.121Z,38.20
2019-05-22T05:05:31.290Z,43.67
2019-05-22T05:07:59.944Z,36.87
2019-05-22T05:10:26.960Z,39.60
2019-05-22T05:12:56.023Z,36.67
2019-05-22T05:15:23.019Z,50.63
2019-05-22T05:17:50.273Z,39.40
2019-05-22T05:20:22.588Z,40.10
2019-05-22T05:22:47.943Z,42.47
2019-05-22T05:25:17.371Z,34.43
2019-05-22T05:27:44.508Z,40.23
2019-05-22T05:30:11.381Z,38.37
2019-05-22T05:32:38.967Z,37.53
2019-05-22T05:35:07.651Z,28.97
2019-05-22T05:37:36.437Z,38.17
2019-05-22T05:40:23.508Z,28.97
2019-05-22T05:42:50.564Z,28.73
2019-05-22T05:45:17.195Z,26.30
2019-05-22T05:47:44.416Z,26.10
2019-05-22T05:50:12.656Z,28.77
2019-05-22T05:52:40.836Z,32.30
2019-05-22T05:55:07.657Z,27.07
2019-05-22T05:58:12.742Z,39.10
2019-05-22T06:00:44.651Z,19.70
2019-05-22T06:03:28.125Z,31.03
2019-05-22T06:05:55.148Z,27.00
2019-05-22T06:08:22.577Z,28.10
2019-05-22T06:11:17.599Z,23.73
2019-05-22T06:13:44.565Z,21.17
2019-05-22T06:16:30.404Z,22.43
2019-05-22T06:18:57.542Z,28.40
2019-05-22T06:21:24.492Z,22.70
2019-05-22T06:24:10.176Z,24.27
2019-05-22T06:26:57.392Z,25.57
2019-05-22T06:29:27.982Z,23.73
2019-05-22T06:32:12.205Z,33.53
2019-05-22T06:34:39.035Z,26.33
2019-05-22T06:37:08.660Z,26.37
2019-05-22T06:39:36.752Z,33.50
2019-05-22T06:42:05.587Z,28.03
2019-05-22T06:44:34.751Z,29.47
2019-05-22T06:47:02.756Z,26.13
2019-05-22T06:49:37.073Z,23.20
2019-05-22T06:52:05.244Z,27.20
2019-05-22T06:54:32.453Z,29.10
2019-05-22T06:56:59.323Z,30.57
2019-05-22T06:59:26.492Z,27.83
2019-05-22T07:02:01.500Z,25.73
2019-05-22T07:04:23.945Z,28.93
2019-05-22T07:06:50.660Z,29.10
2019-05-22T07:09:18.661Z,35.80
2019-05-22T07:11:46.216Z,29.60
2019-05-22T07:14:13.388Z,36.07
2019-05-22T07:16:40.993Z,31.00
2019-05-22T07:19:09.928Z,34.90
2019-05-22T07:21:37.908Z,34.00
2019-05-22T07:24:05.572Z,32.10
2019-05-22T07:26:35.580Z,37.63
2019-05-22T07:29:05.172Z,28.00
2019-05-22T07:31:32.391Z,26.83
2019-05-22T07:33:59.137Z,29.57
2019-05-22T07:36:26.567Z,20.27
2019-05-22T07:38:54.718Z,31.40
2019-05-22T07:41:21.679Z,31.37
2019-05-22T07:43:50.127Z,31.90
2019-05-22T07:46:19.360Z,28.60
2019-05-22T07:48:46.993Z,26.77
2019-05-22T07:51:14.847Z,25.30
2019-05-22T07:53:41.863Z,36.93
2019-05-22T07:56:11.580Z,39.33
2019-05-22T07:58:40.067Z,31.10
2019-05-22T08:01:06.999Z,30.10
2019-05-22T08:03:35.322Z,31.20
2019-05-22T08:06:03.999Z,29.90
2019-05-22T08:08:32.514Z,23.03
2019-05-22T08:10:59.481Z,24.30
2019-05-22T08:13:28.577Z,27.40
2019-05-22T08:15:56.026Z,21.97
2019-05-22T08:18:23.759Z,26.63
2019-05-22T08:20:50.944Z,24.33
2019-05-22T08:23:18.057Z,25.17
2019-05-22T08:25:45.471Z,26.63
2019-05-22T08:28:12.151Z,27.80
2019-05-22T08:30:39.272Z,22.20
2019-05-22T08:33:08.963Z,23.87
2019-05-22T08:35:36.194Z,28.20
2019-05-22T08:38:04.725Z,21.63
2019-05-22T08:40:32.595Z,27.40
2019-05-22T08:42:59.450Z,30.57
2019-05-22T08:45:27.301Z,25.10
2019-05-22T08:47:53.952Z,24.30
2019-05-22T08:50:22.350Z,26.27
2019-05-22T08:52:49.340Z,21.40
2019-05-22T08:55:17.115Z,22.10
2019-05-22T08:57:44.599Z,23.80
2019-05-22T09:00:14.200Z,26.03
2019-05-22T09:02:41.867Z,20.43
2019-05-22T09:05:08.904Z,28.80
2019-05-22T09:07:38.297Z,21.60
2019-05-22T09:10:06.691Z,22.60
2019-05-22T09:12:33.628Z,24.37
2019-05-22T09:15:00.271Z,20.90
2019-05-22T09:17:28.457Z,19.00
2019-05-22T09:19:55.711Z,16.43
2019-05-22T09:22:37.827Z,22.40
2019-05-22T09:24:52.595Z,19.70
2019-05-22T09:27:19.331Z,16.17
2019-05-22T09:29:46.660Z,24.70
2019-05-22T09:32:14.379Z,22.50
2019-05-22T09:34:41.375Z,21.70
2019-05-22T09:37:08.804Z,22.43
2019-05-22T09:39:35.868Z,19.20
2019-05-22T09:42:02.825Z,22.67
2019-05-22T09:44:29.571Z,20.83
2019-05-22T09:46:56.676Z,26.27
2019-05-22T09:49:24.300Z,19.43
2019-05-22T09:51:53.969Z,19.60
2019-05-22T09:54:21.388Z,20.03
2019-05-22T09:56:49.511Z,23.17
2019-05-22T09:59:18.177Z,21.10
2019-05-22T10:01:45.113Z,22.10
2019-05-22T10:04:12.337Z,20.80
2019-05-22T10:06:38.951Z,20.37
2019-05-22T10:09:07.423Z,17.67
2019-05-22T10:11:34.383Z,15.90
2019-05-22T10:14:01.526Z,17.17
2019-05-22T10:16:29.307Z,14.37
2019-05-22T10:18:56.531Z,16.03
2019-05-22T10:21:23.959Z,18.23
2019-05-22T10:23:50.924Z,17.93
2019-05-22T10:26:17.850Z,14.27
2019-05-22T10:28:44.734Z,12.70
2019-05-22T10:31:13.734Z,17.43
2019-05-22T10:33:41.705Z,15.50
2019-05-22T10:36:10.166Z,18.00
2019-05-22T10:38:37.308Z,11.63
2019-05-22T10:41:04.957Z,14.10
2019-05-22T10:43:31.940Z,18.37
2019-05-22T10:45:58.905Z,13.03
2019-05-22T10:48:25.924Z,11.80
2019-05-22T10:50:52.564Z,13.93
2019-05-22T10:53:32.992Z,20.60
2019-05-22T10:55:48.775Z,16.63
2019-05-22T10:58:15.743Z,13.97
2019-05-22T11:00:42.691Z,20.83
2019-05-22T11:03:10.072Z,8.67
2019-05-22T11:05:38.161Z,15.93
2019-05-22T11:08:05.939Z,14.43
2019-05-22T11:10:33.203Z,7.83
2019-05-22T11:13:00.419Z,9.97
2019-05-22T11:15:30.180Z,13.77
2019-05-22T11:17:59.051Z,9.90
2019-05-22T11:20:26.206Z,8.10
2019-05-22T11:22:53.957Z,9.67
2019-05-22T11:25:21.746Z,12.40
2019-05-22T11:27:49.292Z,8.33
2019-05-22T11:30:16.341Z,7.17
2019-05-22T11:32:44.902Z,15.13
2019-05-22T11:35:13.495Z,13.60
2019-05-22T11:37:40.219Z,13.33
2019-05-22T11:40:08.678Z,11.73
2019-05-22T11:42:36.555Z,12.00
2019-05-22T11:45:03.609Z,8.10
2019-05-22T11:47:31.087Z,17.30
2019-05-22T11:49:59.444Z,13.30
2019-05-22T11:52:28.257Z,17.27
2019-05-22T11:54:56.932Z,19.27
2019-05-22T11:57:25.019Z,9.67
2019-05-22T11:59:52.140Z,9.93
2019-05-22T12:02:18.992Z,12.27
2019-05-22T12:04:48.777Z,8.07
2019-05-22T12:07:14.951Z,12.23
2019-05-22T12:09:42.632Z,9.97
2019-05-22T12:12:11.447Z,9.67
2019-05-22T12:14:38.402Z,10.13
2019-05-22T12:17:06.189Z,9.23
2019-05-22T12:19:34.395Z,9.60
2019-05-22T12:22:02.328Z,13.50
2019-05-22T12:24:36.530Z,10.80
2019-05-22T12:27:02.067Z,11.13
2019-05-22T12:29:31.060Z,9.77
2019-05-22T12:31:58.063Z,9.63
2019-05-22T12:34:27.692Z,7.33
2019-05-22T12:36:54.449Z,8.03
2019-05-22T12:39:22.588Z,7.50
2019-05-22T12:41:51.424Z,10.97
2019-05-22T12:44:19.010Z,7.80
2019-05-22T12:46:45.824Z,9.00
2019-05-22T12:49:14.406Z,10.90
2019-05-22T12:51:41.010Z,13.10
2019-05-22T12:54:08.179Z,5.50
2019-05-22T12:56:35.436Z,14.73
2019-05-22T12:59:02.352Z,12.17
2019-05-22T13:01:30.977Z,7.73
2019-05-22T13:03:58.142Z,7.80
2019-05-22T13:06:25.966Z,6.03
2019-05-22T13:08:53.225Z,6.27
2019-05-22T13:11:21.958Z,8.00
2019-05-22T13:13:49.304Z,5.33
2019-05-22T13:16:16.219Z,5.53
2019-05-22T13:18:44.199Z,7.80
2019-05-22T13:21:14.754Z,11.30
2019-05-22T13:23:42.759Z,6.33
2019-05-22T13:26:10.524Z,11.30
2019-05-22T13:28:38.715Z,10.23
2019-05-22T13:31:07.056Z,5.53
2019-05-22T13:33:34.845Z,9.93
2019-05-22T13:36:02.444Z,9.87
2019-05-22T13:38:31.521Z,9.87
2019-05-22T13:40:58.744Z,6.70
2019-05-22T13:43:26.788Z,10.00
2019-05-22T13:45:54.825Z,8.63
2019-05-22T13:48:22.194Z,9.43
2019-05-22T13:50:50.759Z,8.20
2019-05-22T13:53:20.376Z,7.63
2019-05-22T13:55:47.842Z,11.90
2019-05-22T13:58:17.762Z,7.27
2019-05-22T14:00:44.388Z,9.40
2019-05-22T14:03:11.010Z,5.37
2019-05-22T14:05:38.553Z,5.33
2019-05-22T14:08:07.256Z,8.40
2019-05-22T14:10:34.275Z,8.10
2019-05-22T14:13:03.222Z,10.67
2019-05-22T14:15:47.812Z,5.30
2019-05-22T14:18:01.004Z,8.57
2019-05-22T14:20:27.617Z,10.53
2019-05-22T14:22:54.811Z,9.07
2019-05-22T14:25:23.548Z,6.93
2019-05-22T14:27:50.489Z,7.83
2019-05-22T14:30:18.927Z,5.13
2019-05-22T14:32:46.020Z,6.60
2019-05-22T14:35:15.116Z,5.40
2019-05-22T14:37:43.799Z,10.87
2019-05-22T14:40:11.564Z,3.50
2019-05-22T14:42:38.847Z,10.00
2019-05-22T14:45:06.077Z,3.23
2019-05-22T14:47:32.895Z,3.37
2019-05-22T14:49:59.919Z,6.40
2019-05-22T14:52:26.580Z,4.70
2019-05-22T14:54:53.772Z,6.70
2019-05-22T14:57:22.228Z,3.03
2019-05-22T14:59:48.862Z,6.80
2019-05-22T15:02:15.492Z,4.17
2019-05-22T15:04:42.478Z,7.40
2019-05-22T15:07:10.519Z,4.00
2019-05-22T15:09:37.567Z,3.40
2019-05-22T15:12:06.478Z,8.30
2019-05-22T15:14:33.440Z,4.13
2019-05-22T15:17:00.467Z,5.40
2019-05-22T15:19:27.184Z,3.53
2019-05-22T15:21:55.163Z,3.90
2019-05-22T15:24:22.332Z,9.83
2019-05-22T15:26:49.813Z,4.63
2019-05-22T15:29:18.515Z,7.53
2019-05-22T15:31:46.539Z,6.33
2019-05-22T15:34:13.884Z,5.77
2019-05-22T15:36:41.739Z,3.33
2019-05-22T15:39:16.593Z,7.33
2019-05-22T15:41:44.560Z,3.97
2019-05-22T15:44:11.595Z,4.90
2019-05-22T15:46:39.503Z,5.17
2019-05-22T15:49:07.935Z,4.70
2019-05-22T15:51:36.351Z,4.00
2019-05-22T15:54:05.590Z,3.30
2019-05-22T15:56:33.312Z,3.87
2019-05-22T15:59:01.260Z,4.97
2019-05-22T16:01:31.671Z,4.47
2019-05-22T16:03:58.608Z,8.27
2019-05-22T16:06:27.288Z,5.10
2019-05-22T16:08:54.770Z,5.57
2019-05-22T16:11:22.920Z,5.27
2019-05-22T16:13:49.568Z,5.03
2019-05-22T16:16:18.564Z,15.33
2019-05-22T16:18:46.015Z,21.25
2019-05-22T16:21:13.335Z,5.87
2019-05-22T16:23:41.189Z,3.90
2019-05-22T16:26:09.237Z,3.00
2019-05-22T16:28:36.968Z,5.80
2019-05-22T16:31:04.200Z,4.50
2019-05-22T16:33:31.477Z,8.00
2019-05-22T16:35:58.788Z,4.00
2019-05-22T16:38:28.141Z,4.43
2019-05-22T16:40:55.436Z,3.60
2019-05-22T16:43:22.729Z,3.40
2019-05-22T16:45:50.536Z,4.57
2019-05-22T16:48:28.582Z,4.67
2019-05-22T16:50:47.540Z,9.53
2019-05-22T16:53:17.424Z,2.30
2019-05-22T16:55:45.112Z,6.30
2019-05-22T16:58:12.256Z,5.47
2019-05-22T17:00:39.628Z,6.57
2019-05-22T17:03:06.919Z,5.87
2019-05-22T17:05:33.872Z,3.50
2019-05-22T17:08:02.225Z,3.97
2019-05-22T17:10:29.740Z,5.27
2019-05-22T17:12:57.495Z,6.80
2019-05-22T17:15:25.000Z,3.13
2019-05-22T17:17:51.632Z,5.37
2019-05-22T17:20:20.451Z,5.37
2019-05-22T17:22:47.879Z,11.97
2019-05-22T17:25:16.428Z,6.37
2019-05-22T17:27:43.799Z,10.10
2019-05-22T17:30:11.357Z,9.73
2019-05-22T17:32:39.591Z,8.03
2019-05-22T17:35:07.008Z,8.43
2019-05-22T17:37:34.355Z,6.37
2019-05-22T17:40:02.765Z,7.73
2019-05-22T17:42:31.614Z,10.47
2019-05-22T17:45:01.280Z,4.57
2019-05-22T17:47:28.716Z,9.50
2019-05-22T17:49:57.748Z,8.47
2019-05-22T17:52:25.964Z,3.73
2019-05-22T17:54:54.805Z,8.03
2019-05-22T17:57:23.277Z,7.40
2019-05-22T17:59:50.853Z,8.50
2019-05-22T18:02:19.643Z,4.00
2019-05-22T18:04:47.776Z,7.73
2019-05-22T18:07:14.811Z,6.53
2019-05-22T18:09:44.521Z,6.50
2019-05-22T18:12:14.016Z,6.87
2019-05-22T18:14:41.116Z,4.73
2019-05-22T18:17:08.364Z,5.67
2019-05-22T18:19:36.493Z,5.23
2019-05-22T18:22:03.472Z,4.87
2019-05-22T18:24:30.086Z,8.83
2019-05-22T18:26:59.296Z,6.97
2019-05-22T18:29:26.265Z,6.00
2019-05-22T18:31:52.904Z,5.90
2019-05-22T18:34:20.635Z,3.33
2019-05-22T18:36:47.737Z,12.17
2019-05-22T18:39:15.840Z,13.00
2019-05-22T18:41:42.923Z,7.63
2019-05-22T18:44:10.539Z,6.10
2019-05-22T18:46:38.185Z,3.17
2019-05-22T18:49:04.923Z,2.83
2019-05-22T18:51:32.091Z,3.00
2019-05-22T18:53:59.733Z,4.53
2019-05-22T18:56:26.474Z,2.20
2019-05-22T18:58:53.448Z,6.33
2019-05-22T19:01:20.204Z,4.53
2019-05-22T19:03:49.268Z,5.83
2019-05-22T19:06:29.807Z,3.33
2019-05-22T19:08:46.400Z,6.33
2019-05-22T19:11:13.619Z,8.83
2019-05-22T19:13:41.388Z,4.70
2019-05-22T19:16:08.912Z,9.73
2019-05-22T19:18:35.911Z,2.53
2019-05-22T19:21:03.720Z,2.83
2019-05-22T19:23:30.743Z,4.47
2019-05-22T19:25:57.393Z,4.73
2019-05-22T19:28:40.558Z,3.17
2019-05-22T19:30:53.404Z,3.43
2019-05-22T19:33:20.033Z,2.60
2019-05-22T19:35:47.011Z,5.70
2019-05-22T19:38:15.137Z,8.63
2019-05-22T19:40:41.891Z,4.93
2019-05-22T19:43:08.556Z,4.80
2019-05-22T19:45:35.780Z,5.90
2019-05-22T19:48:03.996Z,2.40
2019-05-22T19:50:32.779Z,7.67
2019-05-22T19:53:17.696Z,2.37
2019-05-22T19:55:29.406Z,3.03
2019-05-22T19:57:56.508Z,1.90
2019-05-22T20:00:25.321Z,4.43
2019-05-22T20:02:52.955Z,3.83
2019-05-22T20:05:19.579Z,7.47
2019-05-22T20:07:47.304Z,7.93
2019-05-22T20:10:17.338Z,3.27
2019-05-22T20:12:45.122Z,7.33
2019-05-22T20:15:13.043Z,3.23
2019-05-22T20:17:40.323Z,4.77
2019-05-22T20:20:07.269Z,4.97
2019-05-22T20:22:36.179Z,3.63
2019-05-22T20:25:04.749Z,8.23
2019-05-22T20:27:33.084Z,5.57
2019-05-22T20:30:00.615Z,4.93
2019-05-22T20:32:28.201Z,3.23
2019-05-22T20:34:55.976Z,5.43
2019-05-22T20:37:23.899Z,3.90
2019-05-22T20:39:51.172Z,5.50
2019-05-22T20:42:18.352Z,3.50
2019-05-22T20:44:45.346Z,7.97
2019-05-22T20:47:14.111Z,4.40
2019-05-22T20:49:43.303Z,6.43
2019-05-22T20:52:11.214Z,2.63
2019-05-22T20:54:38.830Z,7.37
2019-05-22T20:57:07.899Z,4.07
2019-05-22T20:59:41.206Z,4.40
2019-05-22T21:02:09.779Z,7.50
2019-05-22T21:04:40.364Z,5.50
2019-05-22T21:07:09.641Z,4.80
2019-05-22T21:09:36.877Z,6.67
2019-05-22T21:12:06.295Z,5.13
2019-05-22T21:14:33.391Z,3.40
2019-05-22T21:17:01.908Z,3.77
2019-05-22T21:19:30.866Z,4.40
2019-05-22T21:21:58.811Z,5.60
2019-05-22T21:24:27.342Z,3.93
2019-05-22T21:26:54.122Z,2.97
2019-05-22T21:29:22.315Z,5.03
2019-05-22T21:31:50.584Z,7.30
2019-05-22T21:34:17.433Z,7.27
2019-05-22T21:36:44.263Z,4.00
2019-05-22T21:39:13.103Z,3.03
2019-05-22T21:41:42.629Z,2.30
2019-05-22T21:44:10.527Z,2.27
2019-05-22T21:46:38.461Z,7.47
2019-05-22T21:49:06.054Z,9.13
2019-05-22T21:51:33.783Z,3.23
2019-05-22T21:54:01.153Z,4.70
2019-05-22T21:56:29.168Z,3.70
2019-05-22T21:58:56.896Z,2.50
2019-05-22T22:01:33.745Z,4.80
2019-05-22T22:04:08.628Z,4.60
2019-05-22T22:06:35.607Z,3.03
2019-05-22T22:09:03.424Z,5.20
2019-05-22T22:11:30.703Z,4.57
2019-05-22T22:13:59.828Z,3.53
2019-05-22T22:16:27.496Z,6.00
2019-05-22T22:18:54.689Z,4.90
2019-05-22T22:21:21.640Z,4.93
2019-05-22T22:23:48.606Z,9.77
2019-05-22T22:26:25.612Z,7.80
2019-05-22T22:28:45.987Z,4.83
2019-05-22T22:31:15.003Z,7.50
2019-05-22T22:33:44.153Z,10.40
2019-05-22T22:36:11.727Z,4.17
2019-05-22T22:38:39.141Z,4.77
2019-05-22T22:41:08.395Z,6.07
2019-05-22T22:43:37.341Z,8.80
2019-05-22T22:46:08.111Z,8.00
2019-05-22T22:48:36.098Z,4.50
2019-05-22T22:51:05.409Z,4.57
2019-05-22T22:53:33.210Z,5.07
2019-05-22T22:56:00.871Z,5.10
2019-05-22T22:58:28.331Z,7.30
2019-05-22T23:00:56.751Z,5.63
2019-05-22T23:03:26.758Z,7.80
2019-05-22T23:05:54.212Z,5.43
2019-05-22T23:08:24.262Z,4.83
2019-05-22T23:10:51.125Z,6.37
2019-05-22T23:13:18.600Z,4.63
2019-05-22T23:15:48.623Z,3.60
2019-05-22T23:18:21.794Z,6.77
2019-05-22T23:20:48.337Z,11.50
2019-05-22T23:23:14.871Z,5.60
2019-05-22T23:25:42.611Z,4.97
2019-05-22T23:28:10.677Z,3.63
2019-05-22T23:30:39.507Z,5.93
2019-05-22T23:33:06.148Z,5.97
2019-05-22T23:35:35.023Z,13.33
2019-05-22T23:38:02.886Z,7.80
2019-05-22T23:40:32.531Z,8.90
2019-05-22T23:42:59.956Z,5.97
2019-05-22T23:45:26.956Z,5.97
2019-05-22T23:47:59.255Z,7.67
2019-05-22T23:50:26.791Z,5.03
2019-05-22T23:52:53.818Z,13.77
2019-05-22T23:55:20.450Z,4.33
2019-05-22T23:57:50.271Z,5.83
